sensor_id;sensor_type;location;lat;lon;timestamp;pressure;altitude;pressure_sealevel;temperature
78961;BMP280;68362;45.970;12.646;2023-06-24T00:00:05;101187.16;;;22.19
78961;BMP280;68362;45.970;12.646;2023-06-24T00:01:31;101191.81;;;22.28
78961;BMP280;68362;45.970;12.646;2023-06-24T00:02:34;101191.41;;;22.39
78961;BMP280;68362;45.970;12.646;2023-06-24T00:03:38;101190.22;;;22.08
78961;BMP280;68362;45.970;12.646;2023-06-24T00:04:40;101186.47;;;22.28
78961;BMP280;68362;45.970;12.646;2023-06-24T00:05:42;101191.66;;;22.38
78961;BMP280;68362;45.970;12.646;2023-06-24T00:06:46;101185.72;;;22.41
78961;BMP280;68362;45.970;12.646;2023-06-24T00:07:49;101187.94;;;22.39
78961;BMP280;68362;45.970;12.646;2023-06-24T00:08:51;101182.91;;;22.51
78961;BMP280;68362;45.970;12.646;2023-06-24T00:09:54;101193.13;;;22.49
78961;BMP280;68362;45.970;12.646;2023-06-24T00:10:56;101191.09;;;22.41
78961;BMP280;68362;45.970;12.646;2023-06-24T00:11:59;101195.03;;;22.30
78961;BMP280;68362;45.970;12.646;2023-06-24T00:13:01;101191.53;;;22.29
78961;BMP280;68362;45.970;12.646;2023-06-24T00:14:04;101193.22;;;22.25
78961;BMP280;68362;45.970;12.646;2023-06-24T00:15:09;101187.84;;;22.06
78961;BMP280;68362;45.970;12.646;2023-06-24T00:16:12;101188.41;;;22.03
78961;BMP280;68362;45.970;12.646;2023-06-24T00:17:14;101194.56;;;21.85
78961;BMP280;68362;45.970;12.646;2023-06-24T00:18:18;101191.72;;;21.52
78961;BMP280;68362;45.970;12.646;2023-06-24T00:19:25;101190.22;;;21.65
78961;BMP280;68362;45.970;12.646;2023-06-24T00:20:28;101190.88;;;21.57
78961;BMP280;68362;45.970;12.646;2023-06-24T00:21:30;101197.22;;;21.61
78961;BMP280;68362;45.970;12.646;2023-06-24T00:22:33;101199.00;;;21.71
78961;BMP280;68362;45.970;12.646;2023-06-24T00:23:35;101199.13;;;21.79
78961;BMP280;68362;45.970;12.646;2023-06-24T00:24:38;101189.75;;;21.82
78961;BMP280;68362;45.970;12.646;2023-06-24T00:25:41;101197.84;;;21.77
78961;BMP280;68362;45.970;12.646;2023-06-24T00:26:47;101200.25;;;21.78
78961;BMP280;68362;45.970;12.646;2023-06-24T00:27:50;101191.22;;;21.93
78961;BMP280;68362;45.970;12.646;2023-06-24T00:28:52;101189.50;;;22.02
78961;BMP280;68362;45.970;12.646;2023-06-24T00:29:54;101183.97;;;21.99
78961;BMP280;68362;45.970;12.646;2023-06-24T00:30:56;101186.31;;;22.00
78961;BMP280;68362;45.970;12.646;2023-06-24T00:31:59;101188.03;;;21.91
78961;BMP280;68362;45.970;12.646;2023-06-24T00:33:01;101180.81;;;21.91
78961;BMP280;68362;45.970;12.646;2023-06-24T00:34:04;101184.34;;;21.87
78961;BMP280;68362;45.970;12.646;2023-06-24T00:35:07;101180.78;;;21.73
78961;BMP280;68362;45.970;12.646;2023-06-24T00:36:09;101180.22;;;21.76
78961;BMP280;68362;45.970;12.646;2023-06-24T00:37:14;101181.16;;;21.66
78961;BMP280;68362;45.970;12.646;2023-06-24T00:38:16;101174.94;;;21.71
78961;BMP280;68362;45.970;12.646;2023-06-24T00:39:18;101177.31;;;21.72
78961;BMP280;68362;45.970;12.646;2023-06-24T00:40:20;101177.28;;;21.77
78961;BMP280;68362;45.970;12.646;2023-06-24T00:41:23;101180.47;;;21.98
78961;BMP280;68362;45.970;12.646;2023-06-24T00:42:25;101177.22;;;22.01
78961;BMP280;68362;45.970;12.646;2023-06-24T00:43:27;101174.06;;;21.75
78961;BMP280;68362;45.970;12.646;2023-06-24T00:44:29;101182.25;;;21.84
78961;BMP280;68362;45.970;12.646;2023-06-24T00:45:32;101170.13;;;21.91
78961;BMP280;68362;45.970;12.646;2023-06-24T00:46:34;101179.00;;;21.87
78961;BMP280;68362;45.970;12.646;2023-06-24T00:47:38;101171.72;;;21.92
78961;BMP280;68362;45.970;12.646;2023-06-24T00:48:42;101175.13;;;21.98
78961;BMP280;68362;45.970;12.646;2023-06-24T00:49:44;101172.84;;;21.68
78961;BMP280;68362;45.970;12.646;2023-06-24T00:50:47;101180.09;;;21.86
78961;BMP280;68362;45.970;12.646;2023-06-24T00:51:51;101169.75;;;21.79
78961;BMP280;68362;45.970;12.646;2023-06-24T00:52:53;101173.56;;;21.73
78961;BMP280;68362;45.970;12.646;2023-06-24T00:53:56;101174.88;;;21.52
78961;BMP280;68362;45.970;12.646;2023-06-24T00:54:58;101175.22;;;21.69
78961;BMP280;68362;45.970;12.646;2023-06-24T00:56:01;101170.31;;;21.76
78961;BMP280;68362;45.970;12.646;2023-06-24T00:57:05;101170.69;;;21.88
78961;BMP280;68362;45.970;12.646;2023-06-24T00:58:08;101172.91;;;21.63
78961;BMP280;68362;45.970;12.646;2023-06-24T00:59:13;101170.53;;;21.80
78961;BMP280;68362;45.970;12.646;2023-06-24T01:00:15;101171.41;;;21.75
78961;BMP280;68362;45.970;12.646;2023-06-24T01:01:20;101167.97;;;21.75
78961;BMP280;68362;45.970;12.646;2023-06-24T01:02:23;101172.19;;;21.57
78961;BMP280;68362;45.970;12.646;2023-06-24T01:03:30;101172.03;;;21.67
78961;BMP280;68362;45.970;12.646;2023-06-24T01:04:33;101177.81;;;21.50
78961;BMP280;68362;45.970;12.646;2023-06-24T01:05:35;101172.66;;;21.59
78961;BMP280;68362;45.970;12.646;2023-06-24T01:06:38;101175.88;;;21.80
78961;BMP280;68362;45.970;12.646;2023-06-24T01:07:46;101174.03;;;21.80
78961;BMP280;68362;45.970;12.646;2023-06-24T01:09:00;101172.00;;;21.91
78961;BMP280;68362;45.970;12.646;2023-06-24T01:10:03;101170.03;;;21.97
78961;BMP280;68362;45.970;12.646;2023-06-24T01:11:08;101173.16;;;21.85
78961;BMP280;68362;45.970;12.646;2023-06-24T01:12:10;101172.25;;;21.71
78961;BMP280;68362;45.970;12.646;2023-06-24T01:13:12;101174.50;;;21.64
78961;BMP280;68362;45.970;12.646;2023-06-24T01:14:15;101174.88;;;21.76
78961;BMP280;68362;45.970;12.646;2023-06-24T01:15:22;101173.63;;;21.92
78961;BMP280;68362;45.970;12.646;2023-06-24T01:17:00;101170.66;;;21.70
78961;BMP280;68362;45.970;12.646;2023-06-24T01:18:24;101175.41;;;21.78
78961;BMP280;68362;45.970;12.646;2023-06-24T01:19:44;101168.94;;;21.79
78961;BMP280;68362;45.970;12.646;2023-06-24T01:29:52;101165.00;;;21.52
78961;BMP280;68362;45.970;12.646;2023-06-24T01:31:14;101167.03;;;21.37
78961;BMP280;68362;45.970;12.646;2023-06-24T01:32:33;101173.03;;;21.23
78961;BMP280;68362;45.970;12.646;2023-06-24T01:35:02;101173.94;;;21.43
78961;BMP280;68362;45.970;12.646;2023-06-24T01:36:08;101180.41;;;21.08
78961;BMP280;68362;45.970;12.646;2023-06-24T01:37:17;101173.28;;;21.27
78961;BMP280;68362;45.970;12.646;2023-06-24T01:38:27;101178.13;;;21.25
78961;BMP280;68362;45.970;12.646;2023-06-24T01:39:33;101179.28;;;21.14
78961;BMP280;68362;45.970;12.646;2023-06-24T01:40:46;101181.03;;;20.99
78961;BMP280;68362;45.970;12.646;2023-06-24T01:41:57;101177.78;;;21.31
78961;BMP280;68362;45.970;12.646;2023-06-24T01:43:03;101180.69;;;21.35
78961;BMP280;68362;45.970;12.646;2023-06-24T01:44:08;101180.81;;;21.25
78961;BMP280;68362;45.970;12.646;2023-06-24T01:45:30;101180.69;;;21.35
78961;BMP280;68362;45.970;12.646;2023-06-24T01:46:34;101174.19;;;21.41
78961;BMP280;68362;45.970;12.646;2023-06-24T01:47:37;101189.75;;;21.39
78961;BMP280;68362;45.970;12.646;2023-06-24T01:48:42;101182.34;;;21.31
78961;BMP280;68362;45.970;12.646;2023-06-24T01:49:46;101180.84;;;21.15
78961;BMP280;68362;45.970;12.646;2023-06-24T01:50:57;101189.88;;;21.24
78961;BMP280;68362;45.970;12.646;2023-06-24T01:52:01;101187.63;;;21.36
78961;BMP280;68362;45.970;12.646;2023-06-24T01:53:06;101193.47;;;21.38
78961;BMP280;68362;45.970;12.646;2023-06-24T01:54:11;101194.53;;;21.13
78961;BMP280;68362;45.970;12.646;2023-06-24T01:55:18;101196.03;;;20.90
78961;BMP280;68362;45.970;12.646;2023-06-24T01:56:23;101193.06;;;20.58
78961;BMP280;68362;45.970;12.646;2023-06-24T01:57:27;101202.66;;;20.64
78961;BMP280;68362;45.970;12.646;2023-06-24T01:58:31;101200.91;;;20.39
78961;BMP280;68362;45.970;12.646;2023-06-24T01:59:38;101206.09;;;20.20
78961;BMP280;68362;45.970;12.646;2023-06-24T02:00:46;101211.06;;;19.67
78961;BMP280;68362;45.970;12.646;2023-06-24T02:01:50;101210.53;;;19.60
78961;BMP280;68362;45.970;12.646;2023-06-24T02:02:54;101215.00;;;19.90
78961;BMP280;68362;45.970;12.646;2023-06-24T02:03:58;101215.13;;;20.24
78961;BMP280;68362;45.970;12.646;2023-06-24T02:05:04;101219.88;;;20.37
78961;BMP280;68362;45.970;12.646;2023-06-24T02:06:07;101222.47;;;20.53
78961;BMP280;68362;45.970;12.646;2023-06-24T02:07:12;101225.34;;;20.61
78961;BMP280;68362;45.970;12.646;2023-06-24T02:08:15;101223.13;;;20.74
78961;BMP280;68362;45.970;12.646;2023-06-24T02:09:19;101220.09;;;20.85
78961;BMP280;68362;45.970;12.646;2023-06-24T02:10:22;101220.22;;;20.70
78961;BMP280;68362;45.970;12.646;2023-06-24T02:11:25;101216.19;;;20.73
78961;BMP280;68362;45.970;12.646;2023-06-24T02:12:30;101227.19;;;20.66
78961;BMP280;68362;45.970;12.646;2023-06-24T02:13:34;101237.69;;;20.42
78961;BMP280;68362;45.970;12.646;2023-06-24T02:14:38;101236.69;;;20.38
78961;BMP280;68362;45.970;12.646;2023-06-24T02:15:41;101240.59;;;20.56
78961;BMP280;68362;45.970;12.646;2023-06-24T02:16:44;101240.78;;;20.69
78961;BMP280;68362;45.970;12.646;2023-06-24T02:17:50;101249.56;;;20.70
78961;BMP280;68362;45.970;12.646;2023-06-24T02:18:53;101243.34;;;20.80
78961;BMP280;68362;45.970;12.646;2023-06-24T02:19:57;101242.03;;;20.77
78961;BMP280;68362;45.970;12.646;2023-06-24T02:21:01;101246.34;;;20.78
78961;BMP280;68362;45.970;12.646;2023-06-24T02:22:06;101245.47;;;20.83
78961;BMP280;68362;45.970;12.646;2023-06-24T02:23:12;101246.06;;;20.75
78961;BMP280;68362;45.970;12.646;2023-06-24T02:24:14;101247.75;;;20.60
78961;BMP280;68362;45.970;12.646;2023-06-24T02:25:16;101253.66;;;20.57
78961;BMP280;68362;45.970;12.646;2023-06-24T02:26:19;101253.03;;;20.70
78961;BMP280;68362;45.970;12.646;2023-06-24T02:27:21;101257.59;;;20.65
78961;BMP280;68362;45.970;12.646;2023-06-24T02:28:24;101256.50;;;20.71
78961;BMP280;68362;45.970;12.646;2023-06-24T02:29:28;101249.47;;;20.80
78961;BMP280;68362;45.970;12.646;2023-06-24T02:30:34;101252.06;;;20.95
78961;BMP280;68362;45.970;12.646;2023-06-24T02:31:37;101250.47;;;20.94
78961;BMP280;68362;45.970;12.646;2023-06-24T02:32:39;101250.94;;;21.01
78961;BMP280;68362;45.970;12.646;2023-06-24T02:33:41;101257.41;;;20.95
78961;BMP280;68362;45.970;12.646;2023-06-24T02:34:44;101249.88;;;21.02
78961;BMP280;68362;45.970;12.646;2023-06-24T02:35:46;101254.88;;;21.09
78961;BMP280;68362;45.970;12.646;2023-06-24T02:36:49;101250.22;;;20.91
78961;BMP280;68362;45.970;12.646;2023-06-24T02:37:51;101259.00;;;20.96
78961;BMP280;68362;45.970;12.646;2023-06-24T02:38:53;101248.63;;;20.90
78961;BMP280;68362;45.970;12.646;2023-06-24T02:39:56;101250.75;;;20.93
78961;BMP280;68362;45.970;12.646;2023-06-24T02:40:59;101261.63;;;21.01
78961;BMP280;68362;45.970;12.646;2023-06-24T02:42:02;101261.63;;;21.01
78961;BMP280;68362;45.970;12.646;2023-06-24T02:43:05;101260.94;;;20.86
78961;BMP280;68362;45.970;12.646;2023-06-24T02:44:07;101256.44;;;20.81
78961;BMP280;68362;45.970;12.646;2023-06-24T02:45:10;101262.16;;;21.04
78961;BMP280;68362;45.970;12.646;2023-06-24T02:46:14;101267.03;;;20.86
78961;BMP280;68362;45.970;12.646;2023-06-24T02:48:21;101272.56;;;20.61
78961;BMP280;68362;45.970;12.646;2023-06-24T02:49:23;101276.41;;;20.39
78961;BMP280;68362;45.970;12.646;2023-06-24T02:50:26;101281.28;;;20.22
78961;BMP280;68362;45.970;12.646;2023-06-24T02:51:29;101287.06;;;20.45
78961;BMP280;68362;45.970;12.646;2023-06-24T02:52:32;101285.13;;;20.55
78961;BMP280;68362;45.970;12.646;2023-06-24T02:53:34;101288.81;;;20.64
78961;BMP280;68362;45.970;12.646;2023-06-24T02:54:38;101286.97;;;20.60
78961;BMP280;68362;45.970;12.646;2023-06-24T02:55:42;101286.53;;;20.42
78961;BMP280;68362;45.970;12.646;2023-06-24T02:56:44;101300.50;;;20.19
78961;BMP280;68362;45.970;12.646;2023-06-24T02:57:47;101295.59;;;20.41
78961;BMP280;68362;45.970;12.646;2023-06-24T02:58:50;101296.06;;;20.59
78961;BMP280;68362;45.970;12.646;2023-06-24T02:59:54;101294.94;;;20.65
78961;BMP280;68362;45.970;12.646;2023-06-24T03:01:00;101297.28;;;20.77
78961;BMP280;68362;45.970;12.646;2023-06-24T03:02:04;101299.25;;;20.61
78961;BMP280;68362;45.970;12.646;2023-06-24T03:03:07;101292.94;;;20.36
78961;BMP280;68362;45.970;12.646;2023-06-24T03:04:10;101299.31;;;20.46
78961;BMP280;68362;45.970;12.646;2023-06-24T03:05:14;101300.34;;;20.50
78961;BMP280;68362;45.970;12.646;2023-06-24T03:06:17;101308.84;;;20.57
78961;BMP280;68362;45.970;12.646;2023-06-24T03:07:20;101309.22;;;20.35
78961;BMP280;68362;45.970;12.646;2023-06-24T03:08:24;101300.34;;;20.55
78961;BMP280;68362;45.970;12.646;2023-06-24T03:09:26;101306.72;;;20.59
78961;BMP280;68362;45.970;12.646;2023-06-24T03:10:29;101312.38;;;20.52
78961;BMP280;68362;45.970;12.646;2023-06-24T03:11:31;101311.31;;;20.48
78961;BMP280;68362;45.970;12.646;2023-06-24T03:12:33;101309.47;;;20.44
78961;BMP280;68362;45.970;12.646;2023-06-24T03:13:35;101311.84;;;20.45
78961;BMP280;68362;45.970;12.646;2023-06-24T03:14:38;101323.34;;;20.40
78961;BMP280;68362;45.970;12.646;2023-06-24T03:15:40;101319.97;;;20.09
78961;BMP280;68362;45.970;12.646;2023-06-24T03:16:42;101322.31;;;20.31
78961;BMP280;68362;45.970;12.646;2023-06-24T03:17:45;101327.63;;;20.31
78961;BMP280;68362;45.970;12.646;2023-06-24T03:18:47;101325.78;;;20.32
78961;BMP280;68362;45.970;12.646;2023-06-24T03:19:49;101320.00;;;19.94
78961;BMP280;68362;45.970;12.646;2023-06-24T03:20:52;101330.13;;;19.82
78961;BMP280;68362;45.970;12.646;2023-06-24T03:21:55;101330.69;;;19.69
78961;BMP280;68362;45.970;12.646;2023-06-24T03:23:06;101324.53;;;19.78
78961;BMP280;68362;45.970;12.646;2023-06-24T03:24:11;101325.34;;;19.69
78961;BMP280;68362;45.970;12.646;2023-06-24T03:25:14;101327.44;;;19.97
78961;BMP280;68362;45.970;12.646;2023-06-24T03:26:16;101331.69;;;20.08
78961;BMP280;68362;45.970;12.646;2023-06-24T03:27:18;101333.03;;;20.01
78961;BMP280;68362;45.970;12.646;2023-06-24T03:28:20;101334.94;;;19.60
78961;BMP280;68362;45.970;12.646;2023-06-24T03:29:23;101333.34;;;19.69
78961;BMP280;68362;45.970;12.646;2023-06-24T03:30:25;101330.41;;;19.75
78961;BMP280;68362;45.970;12.646;2023-06-24T03:31:27;101334.69;;;19.81
78961;BMP280;68362;45.970;12.646;2023-06-24T03:32:29;101329.84;;;19.83
78961;BMP280;68362;45.970;12.646;2023-06-24T03:33:32;101329.63;;;19.85
78961;BMP280;68362;45.970;12.646;2023-06-24T03:34:34;101336.28;;;19.93
78961;BMP280;68362;45.970;12.646;2023-06-24T03:35:36;101338.94;;;19.77
78961;BMP280;68362;45.970;12.646;2023-06-24T03:36:38;101333.56;;;19.98
78961;BMP280;68362;45.970;12.646;2023-06-24T03:37:41;101337.84;;;19.94
78961;BMP280;68362;45.970;12.646;2023-06-24T03:38:43;101342.09;;;20.05
78961;BMP280;68362;45.970;12.646;2023-06-24T03:39:45;101343.16;;;20.14
78961;BMP280;68362;45.970;12.646;2023-06-24T03:40:47;101337.84;;;20.19
78961;BMP280;68362;45.970;12.646;2023-06-24T03:41:50;101339.66;;;20.29
78961;BMP280;68362;45.970;12.646;2023-06-24T03:42:52;101339.38;;;20.30
78961;BMP280;68362;45.970;12.646;2023-06-24T03:43:54;101347.34;;;20.40
78961;BMP280;68362;45.970;12.646;2023-06-24T03:44:57;101341.81;;;20.17
78961;BMP280;68362;45.970;12.646;2023-06-24T03:46:00;101346.88;;;20.13
78961;BMP280;68362;45.970;12.646;2023-06-24T03:47:02;101344.97;;;20.24
78961;BMP280;68362;45.970;12.646;2023-06-24T03:48:04;101350.09;;;20.15
78961;BMP280;68362;45.970;12.646;2023-06-24T03:49:07;101350.06;;;20.25
78961;BMP280;68362;45.970;12.646;2023-06-24T03:50:09;101354.81;;;20.49
78961;BMP280;68362;45.970;12.646;2023-06-24T03:51:11;101354.84;;;20.33
78961;BMP280;68362;45.970;12.646;2023-06-24T03:52:14;101350.53;;;20.53
78961;BMP280;68362;45.970;12.646;2023-06-24T03:53:16;101361.97;;;20.53
78961;BMP280;68362;45.970;12.646;2023-06-24T03:54:18;101357.47;;;20.44
78961;BMP280;68362;45.970;12.646;2023-06-24T03:55:20;101362.75;;;20.54
78961;BMP280;68362;45.970;12.646;2023-06-24T03:56:22;101357.78;;;20.37
78961;BMP280;68362;45.970;12.646;2023-06-24T03:57:24;101356.69;;;20.38
78961;BMP280;68362;45.970;12.646;2023-06-24T03:58:27;101353.28;;;20.22
78961;BMP280;68362;45.970;12.646;2023-06-24T03:59:29;101362.34;;;20.26
78961;BMP280;68362;45.970;12.646;2023-06-24T04:00:31;101357.78;;;20.27
78961;BMP280;68362;45.970;12.646;2023-06-24T04:01:33;101358.88;;;20.26
78961;BMP280;68362;45.970;12.646;2023-06-24T04:02:36;101359.91;;;20.35
78961;BMP280;68362;45.970;12.646;2023-06-24T04:03:38;101358.84;;;20.21
78961;BMP280;68362;45.970;12.646;2023-06-24T04:04:40;101360.72;;;20.30
78961;BMP280;68362;45.970;12.646;2023-06-24T04:05:42;101362.81;;;20.44
78961;BMP280;68362;45.970;12.646;2023-06-24T04:06:45;101368.41;;;20.52
78961;BMP280;68362;45.970;12.646;2023-06-24T04:07:47;101371.38;;;20.30
78961;BMP280;68362;45.970;12.646;2023-06-24T04:08:49;101373.53;;;20.23
78961;BMP280;68362;45.970;12.646;2023-06-24T04:09:54;101376.19;;;20.23
78961;BMP280;68362;45.970;12.646;2023-06-24T04:10:58;101379.13;;;20.22
78961;BMP280;68362;45.970;12.646;2023-06-24T04:12:05;101379.38;;;20.40
78961;BMP280;68362;45.970;12.646;2023-06-24T04:13:07;101365.47;;;20.44
78961;BMP280;68362;45.970;12.646;2023-06-24T04:14:09;101374.06;;;20.25
78961;BMP280;68362;45.970;12.646;2023-06-24T04:15:12;101367.16;;;20.19
78961;BMP280;68362;45.970;12.646;2023-06-24T04:16:14;101371.94;;;20.22
78961;BMP280;68362;45.970;12.646;2023-06-24T04:17:16;101371.41;;;20.25
78961;BMP280;68362;45.970;12.646;2023-06-24T04:18:19;101370.03;;;20.38
78961;BMP280;68362;45.970;12.646;2023-06-24T04:19:21;101374.56;;;20.32
78961;BMP280;68362;45.970;12.646;2023-06-24T04:20:23;101373.22;;;20.40
78961;BMP280;68362;45.970;12.646;2023-06-24T04:21:26;101375.88;;;20.45
78961;BMP280;68362;45.970;12.646;2023-06-24T04:22:28;101377.25;;;20.32
78961;BMP280;68362;45.970;12.646;2023-06-24T04:23:30;101384.16;;;20.33
78961;BMP280;68362;45.970;12.646;2023-06-24T04:24:32;101384.97;;;20.24
78961;BMP280;68362;45.970;12.646;2023-06-24T04:25:34;101391.69;;;19.91
78961;BMP280;68362;45.970;12.646;2023-06-24T04:26:37;101390.34;;;20.14
78961;BMP280;68362;45.970;12.646;2023-06-24T04:27:40;101385.56;;;20.00
78961;BMP280;68362;45.970;12.646;2023-06-24T04:28:42;101386.38;;;19.80
78961;BMP280;68362;45.970;12.646;2023-06-24T04:29:44;101385.56;;;19.80
78961;BMP280;68362;45.970;12.646;2023-06-24T04:30:46;101383.13;;;20.09
78961;BMP280;68362;45.970;12.646;2023-06-24T04:31:49;101387.41;;;20.25
78961;BMP280;68362;45.970;12.646;2023-06-24T04:32:51;101384.69;;;20.40
78961;BMP280;68362;45.970;12.646;2023-06-24T04:33:53;101383.91;;;20.40
78961;BMP280;68362;45.970;12.646;2023-06-24T04:34:58;101386.56;;;20.35
78961;BMP280;68362;45.970;12.646;2023-06-24T04:36:01;101385.75;;;20.45
78961;BMP280;68362;45.970;12.646;2023-06-24T04:37:04;101390.53;;;20.53
78961;BMP280;68362;45.970;12.646;2023-06-24T04:38:06;101391.34;;;20.43
78961;BMP280;68362;45.970;12.646;2023-06-24T04:39:08;101392.19;;;20.28
78961;BMP280;68362;45.970;12.646;2023-06-24T04:40:10;101389.75;;;20.47
78961;BMP280;68362;45.970;12.646;2023-06-24T04:41:12;101394.34;;;20.26
78961;BMP280;68362;45.970;12.646;2023-06-24T04:42:15;101402.91;;;19.72
78961;BMP280;68362;45.970;12.646;2023-06-24T04:43:17;101405.53;;;19.82
78961;BMP280;68362;45.970;12.646;2023-06-24T04:44:19;101397.31;;;19.99
78961;BMP280;68362;45.970;12.646;2023-06-24T04:45:22;101405.25;;;20.20
78961;BMP280;68362;45.970;12.646;2023-06-24T04:46:24;101407.13;;;20.29
78961;BMP280;68362;45.970;12.646;2023-06-24T04:47:26;101407.66;;;20.31
78961;BMP280;68362;45.970;12.646;2023-06-24T04:48:29;101404.94;;;20.47
78961;BMP280;68362;45.970;12.646;2023-06-24T04:49:31;101407.06;;;20.55
78961;BMP280;68362;45.970;12.646;2023-06-24T04:50:33;101402.00;;;20.48
78961;BMP280;68362;45.970;12.646;2023-06-24T04:51:35;101406.06;;;20.30
78961;BMP280;68362;45.970;12.646;2023-06-24T04:52:39;101406.56;;;20.27
78961;BMP280;68362;45.970;12.646;2023-06-24T04:53:41;101401.22;;;20.42
78961;BMP280;68362;45.970;12.646;2023-06-24T04:54:43;101414.56;;;20.32
78961;BMP280;68362;45.970;12.646;2023-06-24T04:55:45;101413.78;;;20.32
78961;BMP280;68362;45.970;12.646;2023-06-24T04:56:48;101414.00;;;20.46
78961;BMP280;68362;45.970;12.646;2023-06-24T04:57:52;101409.72;;;20.60
78961;BMP280;68362;45.970;12.646;2023-06-24T04:58:54;101409.72;;;20.60
78961;BMP280;68362;45.970;12.646;2023-06-24T04:59:57;101408.06;;;20.74
78961;BMP280;68362;45.970;12.646;2023-06-24T05:01:00;101415.56;;;20.67
78961;BMP280;68362;45.970;12.646;2023-06-24T05:02:02;101411.81;;;20.68
78961;BMP280;68362;45.970;12.646;2023-06-24T05:03:04;101410.19;;;20.77
78961;BMP280;68362;45.970;12.646;2023-06-24T05:04:07;101417.84;;;20.94
78961;BMP280;68362;45.970;12.646;2023-06-24T05:05:09;101423.50;;;20.92
78961;BMP280;68362;45.970;12.646;2023-06-24T05:06:11;101423.38;;;21.08
78961;BMP280;68362;45.970;12.646;2023-06-24T05:07:14;101419.06;;;21.17
78961;BMP280;68362;45.970;12.646;2023-06-24T05:08:16;101419.72;;;20.93
78961;BMP280;68362;45.970;12.646;2023-06-24T05:09:18;101419.19;;;20.86
78961;BMP280;68362;45.970;12.646;2023-06-24T05:10:20;101422.47;;;20.78
78961;BMP280;68362;45.970;12.646;2023-06-24T05:11:22;101417.13;;;20.68
78961;BMP280;68362;45.970;12.646;2023-06-24T05:12:25;101419.19;;;20.86
78961;BMP280;68362;45.970;12.646;2023-06-24T05:13:30;101411.19;;;20.86
78961;BMP280;68362;45.970;12.646;2023-06-24T05:14:34;101413.84;;;20.96
78961;BMP280;68362;45.970;12.646;2023-06-24T05:15:36;101419.13;;;21.07
78961;BMP280;68362;45.970;12.646;2023-06-24T05:16:38;101416.47;;;21.01
78961;BMP280;68362;45.970;12.646;2023-06-24T05:17:42;101419.31;;;21.15
78961;BMP280;68362;45.970;12.646;2023-06-24T05:18:45;101420.94;;;21.11
78961;BMP280;68362;45.970;12.646;2023-06-24T05:19:47;101418.31;;;21.06
78961;BMP280;68362;45.970;12.646;2023-06-24T05:20:49;101418.84;;;21.13
78961;BMP280;68362;45.970;12.646;2023-06-24T05:21:52;101418.56;;;21.10
78961;BMP280;68362;45.970;12.646;2023-06-24T05:22:54;101430.78;;;21.21
78961;BMP280;68362;45.970;12.646;2023-06-24T05:23:57;101429.13;;;21.30
78961;BMP280;68362;45.970;12.646;2023-06-24T05:24:59;101427.06;;;21.22
78961;BMP280;68362;45.970;12.646;2023-06-24T05:26:01;101426.25;;;21.21
78961;BMP280;68362;45.970;12.646;2023-06-24T05:27:04;101421.75;;;21.17
78961;BMP280;68362;45.970;12.646;2023-06-24T05:28:07;101436.06;;;20.77
78961;BMP280;68362;45.970;12.646;2023-06-24T05:29:10;101436.84;;;20.87
78961;BMP280;68362;45.970;12.646;2023-06-24T05:30:14;101429.88;;;20.96
78961;BMP280;68362;45.970;12.646;2023-06-24T05:31:16;101440.78;;;21.00
78961;BMP280;68362;45.970;12.646;2023-06-24T05:32:18;101439.50;;;20.87
78961;BMP280;68362;45.970;12.646;2023-06-24T05:33:22;101440.06;;;20.79
78961;BMP280;68362;45.970;12.646;2023-06-24T05:34:24;101448.63;;;20.76
78961;BMP280;68362;45.970;12.646;2023-06-24T05:35:26;101447.53;;;20.77
78961;BMP280;68362;45.970;12.646;2023-06-24T05:36:28;101452.31;;;20.80
78961;BMP280;68362;45.970;12.646;2023-06-24T05:37:31;101444.53;;;20.94
78961;BMP280;68362;45.970;12.646;2023-06-24T05:38:33;101447.94;;;21.10
78961;BMP280;68362;45.970;12.646;2023-06-24T05:39:35;101452.75;;;21.13
78961;BMP280;68362;45.970;12.646;2023-06-24T05:40:37;101446.13;;;21.00
78961;BMP280;68362;45.970;12.646;2023-06-24T05:41:39;101458.81;;;21.23
78961;BMP280;68362;45.970;12.646;2023-06-24T05:42:42;101456.47;;;21.22
78961;BMP280;68362;45.970;12.646;2023-06-24T05:43:44;101452.75;;;21.08
78961;BMP280;68362;45.970;12.646;2023-06-24T05:44:46;101448.91;;;21.29
78961;BMP280;68362;45.970;12.646;2023-06-24T05:45:48;101457.47;;;21.26
78961;BMP280;68362;45.970;12.646;2023-06-24T05:46:51;101456.38;;;21.32
78961;BMP280;68362;45.970;12.646;2023-06-24T05:47:53;101466.16;;;21.47
78961;BMP280;68362;45.970;12.646;2023-06-24T05:48:55;101466.91;;;21.57
78961;BMP280;68362;45.970;12.646;2023-06-24T05:49:57;101470.13;;;21.59
78961;BMP280;68362;45.970;12.646;2023-06-24T05:51:00;101461.03;;;21.50
78961;BMP280;68362;45.970;12.646;2023-06-24T05:52:03;101474.53;;;21.35
78961;BMP280;68362;45.970;12.646;2023-06-24T05:53:05;101472.38;;;21.42
78961;BMP280;68362;45.970;12.646;2023-06-24T05:54:07;101473.59;;;21.60
78961;BMP280;68362;45.970;12.646;2023-06-24T05:55:12;101467.47;;;21.54
78961;BMP280;68362;45.970;12.646;2023-06-24T05:56:15;101464.00;;;21.54
78961;BMP280;68362;45.970;12.646;2023-06-24T05:57:17;101463.66;;;21.66
78961;BMP280;68362;45.970;12.646;2023-06-24T05:58:20;101470.66;;;21.56
78961;BMP280;68362;45.970;12.646;2023-06-24T05:59:22;101460.94;;;21.71
78961;BMP280;68362;45.970;12.646;2023-06-24T06:00:24;101469.56;;;21.63
78961;BMP280;68362;45.970;12.646;2023-06-24T06:01:27;101468.91;;;21.76
78961;BMP280;68362;45.970;12.646;2023-06-24T06:02:29;101467.25;;;21.80
78961;BMP280;68362;45.970;12.646;2023-06-24T06:03:31;101467.09;;;22.00
78961;BMP280;68362;45.970;12.646;2023-06-24T06:04:33;101467.22;;;22.19
78961;BMP280;68362;45.970;12.646;2023-06-24T06:05:35;101467.16;;;21.95
78961;BMP280;68362;45.970;12.646;2023-06-24T06:06:38;101472.19;;;22.02